Oyster Creek — WDF6802 — position and weather

sailwx.info

Track history (hours):
 
Tides and Currents Weather Stations Pressure Air Temp Water Temp Dewpoint Dewpoint Depression Visibility Wind Speed Wind Dir Waves Ship Positions

Oyster Creek

Owner: Vane Line Bunkering, Inc, Philadelphia, PA. More information available from US FCC via Universal Licensing System and Coast Guard Vessel Documentation Center.

Last reported at 2018-Feb-22 08:58 UTC. Time now 2018-Feb-22 09:09 UTC.
Position N 39°59' W 075°06'.

Length 30 m; draft 4 m.

Type: Tug. MMSI: 367477980.

Date/timePositionNaut miles runAvg speedWind from/ knotsBaromVisibWave heightAir tempDewpointWater temp
2018-Feb-22 08:58N 39°59' W 075°06'0 0.0
2018-Feb-22 08:28N 39°59' W 075°06'0 0.0
2018-Feb-22 07:58N 39°59' W 075°06'0 0.0
2018-Feb-22 07:28N 39°59' W 075°06'0 0.0
2018-Feb-22 06:58N 39°59' W 075°06'0 0.0
2018-Feb-22 06:28N 39°59' W 075°06'0 0.0
2018-Feb-22 05:58N 39°59' W 075°06'0 0.0
2018-Feb-22 05:28N 39°59' W 075°06'0 0.0
2018-Feb-22 04:58N 39°59' W 075°06'0 0.0
2018-Feb-22 04:28N 39°59' W 075°06'0 0.0
2018-Feb-22 03:58N 39°59' W 075°06'0 0.0
2018-Feb-22 03:28N 39°59' W 075°06'0 0.0
2018-Feb-22 02:58N 39°59' W 075°06'0 0.0
2018-Feb-22 02:28N 39°59' W 075°06'0 0.0
2018-Feb-22 01:58N 39°59' W 075°06'0 0.0
2018-Feb-22 01:28N 39°59' W 075°06'0 0.0
2018-Feb-22 00:58N 39°59' W 075°06'0 0.0
2018-Feb-22 00:28N 39°59' W 075°06'0 0.0
2018-Feb-21 23:58N 39°59' W 075°06'0 0.0
2018-Feb-21 23:28N 39°59' W 075°06'0 0.0
2018-Feb-21 22:55N 39°59' W 075°06'0 0.0
2018-Feb-21 22:28N 39°59' W 075°06'0 0.0
2018-Feb-21 21:58N 39°59' W 075°06'0 0.0
2018-Feb-21 21:28N 39°59' W 075°06'1 1.1
2018-Feb-21 21:00N 39°58' W 075°06'5 9.9
2018-Feb-21 20:30N 39°54' W 075°08'3 6.4
2018-Feb-21 20:00N 39°54' W 075°12'0 0.0
2018-Feb-21 19:30N 39°54' W 075°12'0 0.1
2018-Feb-21 19:00N 39°54' W 075°12'0 0.0
2018-Feb-21 18:28N 39°54' W 075°12'0 0.6
2018-Feb-21 18:00N 39°54' W 075°12'0 0.8
2018-Feb-21 17:30N 39°54' W 075°12'0 0.1
2018-Feb-21 17:00N 39°54' W 075°12'0 0.0
2018-Feb-21 16:30N 39°54' W 075°12'0 0.4
2018-Feb-21 16:01N 39°54' W 075°12'2 3.0
2018-Feb-21 15:30N 39°52' W 075°13'0 0.7
2018-Feb-21 15:00N 39°52' W 075°12'1 2.7
2018-Feb-21 14:30N 39°54' W 075°12'0 0.5
2018-Feb-21 13:59N 39°54' W 075°12'0 0.0
2018-Feb-21 13:29N 39°54' W 075°12'0 0.0
2018-Feb-21 12:59N 39°54' W 075°12'0 0.0
2018-Feb-21 12:29N 39°54' W 075°12'0 0.0
2018-Feb-21 11:56N 39°54' W 075°12'0 0.0
2018-Feb-21 11:29N 39°54' W 075°12'0 0.0
2018-Feb-21 10:59N 39°54' W 075°12'0 0.0
2018-Feb-21 10:29N 39°54' W 075°12'0 0.0
2018-Feb-21 09:59N 39°54' W 075°12'0 0.0
2018-Feb-21 09:29N 39°54' W 075°12'0 0.2
2018-Feb-21 09:01N 39°54' W 075°12'0 0.8
2018-Feb-21 08:30N 39°54' W 075°12'4 8.6
2018-Feb-21 08:00N 39°51' W 075°16'5 9.3
2018-Feb-21 07:30N 39°50' W 075°22'4 8.9
2018-Feb-21 07:01N 39°47' W 075°27'5 9.5
2018-Feb-21 06:31N 39°43' W 075°30'1 1.1
2018-Feb-21 06:01N 39°43' W 075°31'0 0.0
2018-Feb-21 05:30N 39°43' W 075°31'0 0.0
2018-Feb-21 05:00N 39°43' W 075°31'0 0.0
2018-Feb-21 04:29N 39°43' W 075°31'0 0.5
2018-Feb-21 03:58N 39°43' W 075°31'0 0.0
2018-Feb-21 03:29N 39°43' W 075°31'0 0.0
2018-Feb-21 02:59N 39°43' W 075°31'0 0.0
2018-Feb-21 02:29N 39°43' W 075°31'0 0.0
2018-Feb-21 01:56N 39°43' W 075°31'0 0.0
2018-Feb-21 01:29N 39°43' W 075°31'0 0.0
2018-Feb-21 00:59N 39°43' W 075°31'0 0.0
2018-Feb-21 00:29N 39°43' W 075°31'0 0.2
2018-Feb-21 00:00N 39°43' W 075°31'0 0.2
2018-Feb-20 23:30N 39°43' W 075°31'0 0.0
2018-Feb-20 23:00N 39°43' W 075°31'0 0.0
2018-Feb-20 22:27N 39°43' W 075°31'0 0.0
2018-Feb-20 22:00N 39°43' W 075°31'0 0.1
2018-Feb-20 21:31N 39°43' W 075°31'1 2.1
2018-Feb-20 21:00N 39°44' W 075°30'4 7.2
2018-Feb-20 20:30N 39°47' W 075°28'3 6.7
2018-Feb-20 20:00N 39°49' W 075°24'3 6.4
2018-Feb-20 19:30N 39°51' W 075°21'3 6.3
2018-Feb-20 19:00N 39°51' W 075°17'3 5.8
2018-Feb-20 18:30N 39°52' W 075°13'3 5.2
2018-Feb-20 18:01N 39°51' W 075°16'510.1
2018-Feb-20 17:31N 39°50' W 075°23'5 9.8
2018-Feb-20 17:00N 39°47' W 075°28'4 8.4
2018-Feb-20 16:28N 39°43' W 075°31'0 0.1
2018-Feb-20 15:59N 39°43' W 075°31'0 0.9
2018-Feb-20 15:30N 39°43' W 075°30'0 0.2
2018-Feb-20 15:00N 39°43' W 075°30'3 6.8
2018-Feb-20 14:30N 39°46' W 075°29'4 7.4
2018-Feb-20 14:00N 39°48' W 075°25'3 5.5
2018-Feb-20 13:30N 39°50' W 075°22'4 8.0
2018-Feb-20 13:00N 39°51' W 075°17'4 8.0
2018-Feb-20 12:30N 39°53' W 075°12'1 2.0
2018-Feb-20 12:00N 39°54' W 075°12'0 0.1
2018-Feb-20 11:30N 39°54' W 075°12'0 0.0
2018-Feb-20 11:00N 39°54' W 075°12'1 1.1
2018-Feb-20 10:30N 39°53' W 075°12'2 3.9
2018-Feb-20 10:00N 39°52' W 075°13'2 3.6
2018-Feb-20 09:29N 39°54' W 075°12'0 0.0
2018-Feb-20 08:59N 39°54' W 075°12'0 0.0
2018-Feb-20 08:29N 39°54' W 075°12'0 0.1
2018-Feb-20 08:00N 39°54' W 075°12'0 0.0
2018-Feb-20 07:30N 39°54' W 075°12'0 0.0
2018-Feb-20 07:00N 39°54' W 075°12'0 0.0
2018-Feb-20 06:30N 39°54' W 075°12'0 0.0
2018-Feb-20 06:00N 39°54' W 075°12'0 0.0
2018-Feb-20 05:30N 39°54' W 075°12'0 0.0
2018-Feb-20 05:00N 39°54' W 075°12'0 0.0
2018-Feb-20 04:30N 39°54' W 075°12'0 0.0
2018-Feb-20 04:00N 39°54' W 075°12'0 0.0
2018-Feb-20 03:30N 39°54' W 075°12'0 0.0
2018-Feb-20 03:00N 39°54' W 075°12'0 0.0
2018-Feb-20 02:30N 39°54' W 075°12'0 0.0
2018-Feb-20 02:00N 39°54' W 075°12'0 0.0
2018-Feb-20 01:30N 39°54' W 075°12'0 0.0
2018-Feb-20 01:00N 39°54' W 075°12'0 0.0
2018-Feb-20 00:30N 39°54' W 075°12'0 0.0
2018-Feb-20 00:00N 39°54' W 075°12'0 0.0
2018-Feb-19 23:30N 39°54' W 075°12'0 0.0
2018-Feb-19 23:00N 39°54' W 075°12'1 1.2
2018-Feb-19 22:30N 39°53' W 075°12'0 0.0
2018-Feb-19 22:00N 39°53' W 075°12'0 0.0
2018-Feb-19 21:24N 39°53' W 075°12'0 0.0
2018-Feb-19 21:00N 39°53' W 075°12'0 0.0
2018-Feb-19 20:30N 39°53' W 075°12'0 0.0
2018-Feb-19 20:00N 39°53' W 075°12'0 0.0
2018-Feb-19 19:30N 39°53' W 075°12'0 0.0
2018-Feb-19 19:00N 39°53' W 075°12'0 0.0
2018-Feb-19 18:30N 39°53' W 075°12'0 0.0
2018-Feb-19 18:00N 39°53' W 075°12'0 0.0
2018-Feb-19 17:31N 39°53' W 075°12'0 0.0
2018-Feb-19 17:00N 39°53' W 075°12'0 0.0
2018-Feb-19 16:30N 39°53' W 075°12'1 1.2
2018-Feb-19 16:01N 39°54' W 075°12'1 2.1
2018-Feb-19 15:30N 39°55' W 075°13'0 0.0
2018-Feb-19 15:00N 39°55' W 075°13'0 0.0
2018-Feb-19 14:30N 39°55' W 075°13'1 1.9
2018-Feb-19 14:00N 39°54' W 075°12'0 0.4
2018-Feb-19 13:31N 39°54' W 075°12'0 0.0
2018-Feb-19 13:01N 39°54' W 075°12'0 0.2
2018-Feb-19 12:28N 39°54' W 075°12'0 0.0
2018-Feb-19 12:00N 39°54' W 075°12'0 0.0
2018-Feb-19 11:30N 39°54' W 075°12'0 0.0
2018-Feb-19 11:00N 39°54' W 075°12'0 0.0
2018-Feb-19 10:30N 39°54' W 075°12'1 2.1
2018-Feb-19 10:01N 39°55' W 075°13'0 0.0
2018-Feb-19 09:30N 39°55' W 075°13'0 0.0
2018-Feb-19 09:01N 39°55' W 075°13'1 2.2
2018-Feb-19 08:30N 39°54' W 075°12'0 0.1
2018-Feb-19 08:00N 39°54' W 075°12'0 0.0
2018-Feb-19 07:30N 39°54' W 075°12'0 0.0
2018-Feb-19 07:00N 39°54' W 075°12'0 0.0
2018-Feb-19 06:30N 39°54' W 075°12'0 0.0
2018-Feb-19 06:00N 39°54' W 075°12'0 0.0
2018-Feb-19 05:30N 39°54' W 075°12'0 0.0
2018-Feb-19 05:00N 39°54' W 075°12'0 0.0
2018-Feb-19 04:30N 39°54' W 075°12'0 0.0
2018-Feb-19 04:00N 39°54' W 075°12'0 0.1
2018-Feb-19 03:30N 39°54' W 075°12'1 1.4
2018-Feb-19 03:00N 39°53' W 075°12'2 4.1
2018-Feb-19 02:30N 39°53' W 075°09'0 0.2
2018-Feb-19 02:00N 39°53' W 075°09'0 0.7
2018-Feb-19 01:30N 39°53' W 075°10'2 3.5
2018-Feb-19 01:00N 39°53' W 075°12'1 1.2
2018-Feb-19 00:31N 39°54' W 075°12'0 0.2
2018-Feb-19 00:00N 39°54' W 075°12'0 0.0
2018-Feb-18 23:30N 39°54' W 075°12'2 3.8
2018-Feb-18 23:01N 39°53' W 075°10'3 5.3
2018-Feb-18 22:30N 39°55' W 075°08'0 0.0
2018-Feb-18 22:00N 39°55' W 075°08'0 0.0
2018-Feb-18 21:30N 39°55' W 075°08'0 0.0
2018-Feb-18 21:00N 39°55' W 075°08'1 2.3
2018-Feb-18 20:31N 39°54' W 075°08'1 2.7
2018-Feb-18 20:01N 39°53' W 075°09'3 5.4
2018-Feb-18 19:29N 39°54' W 075°12'0 0.0
2018-Feb-18 18:56N 39°54' W 075°12'0 0.0
2018-Feb-18 18:29N 39°54' W 075°12'0 0.0
2018-Feb-18 17:59N 39°54' W 075°12'0 0.1
2018-Feb-18 17:30N 39°54' W 075°12'1 1.4
2018-Feb-18 17:00N 39°53' W 075°12'4 8.8
2018-Feb-18 16:30N 39°51' W 075°16'5 9.1
2018-Feb-18 16:00N 39°50' W 075°22'3 5.3
2018-Feb-18 15:30N 39°48' W 075°25'3 5.1
2018-Feb-18 15:00N 39°50' W 075°22'510.2
2018-Feb-18 14:30N 39°51' W 075°16'510.7
2018-Feb-18 14:00N 39°53' W 075°09'2 3.4
2018-Feb-18 13:30N 39°54' W 075°08'2 5.0
2018-Feb-18 13:00N 39°53' W 075°11'2 4.9
2018-Feb-18 12:30N 39°55' W 075°13'0 0.0
2018-Feb-18 12:00N 39°55' W 075°13'1 2.2
2018-Feb-18 11:30N 39°54' W 075°12'0 0.1
2018-Feb-18 10:59N 39°54' W 075°12'1 1.1
2018-Feb-18 10:25N 39°54' W 075°12'0 0.1
2018-Feb-18 09:58N 39°54' W 075°11'0 0.0
2018-Feb-18 09:28N 39°54' W 075°11'0 0.0
2018-Feb-18 08:58N 39°54' W 075°11'0 0.0
2018-Feb-18 08:28N 39°54' W 075°11'0 0.0
2018-Feb-18 07:58N 39°54' W 075°11'0 0.0
2018-Feb-18 07:28N 39°54' W 075°11'0 0.0
2018-Feb-18 06:58N 39°54' W 075°11'0 0.8
2018-Feb-18 06:30N 39°53' W 075°12'3 5.7
2018-Feb-18 06:00N 39°54' W 075°08'3 6.9
2018-Feb-18 05:31N 39°57' W 075°08'3 6.5
2018-Feb-18 05:00N 39°59' W 075°04'0 0.1
2018-Feb-18 04:31N 39°59' W 075°04'4 7.5
2018-Feb-18 04:01N 39°57' W 075°08'4 7.7
2018-Feb-18 03:30N 39°53' W 075°09'3 5.4
2018-Feb-18 03:00N 39°54' W 075°12'0 0.2
2018-Feb-18 02:30N 39°54' W 075°12'1 2.2
2018-Feb-18 02:01N 39°55' W 075°13'0 0.0
2018-Feb-18 01:30N 39°55' W 075°13'1 2.2
2018-Feb-18 01:00N 39°54' W 075°12'0 0.2
2018-Feb-18 00:31N 39°54' W 075°12'0 0.0
2018-Feb-18 00:01N 39°54' W 075°12'2 3.3
2018-Feb-17 23:30N 39°52' W 075°13'3 6.8
2018-Feb-17 23:00N 39°51' W 075°17'3 6.7
2018-Feb-17 22:30N 39°50' W 075°21'3 5.8
2018-Feb-17 22:00N 39°48' W 075°25'1 1.0
2018-Feb-17 21:30N 39°48' W 075°25'3 5.9
2018-Feb-17 21:00N 39°46' W 075°28'3 6.6
2018-Feb-17 20:31N 39°43' W 075°30'3 6.9
2018-Feb-17 20:01N 39°40' W 075°32'4 7.1
2018-Feb-17 19:30N 39°37' W 075°35'4 7.2
2018-Feb-17 19:00N 39°34' W 075°33'2 4.4
2018-Feb-17 18:30N 39°35' W 075°36'0 0.0
2018-Feb-17 18:00N 39°35' W 075°36'0 0.0
2018-Feb-17 17:30N 39°35' W 075°36'0 0.0
2018-Feb-17 17:00N 39°35' W 075°36'0 0.0
2018-Feb-17 16:30N 39°35' W 075°36'0 0.0
2018-Feb-17 16:00N 39°35' W 075°36'0 0.0
2018-Feb-17 15:30N 39°35' W 075°36'0 0.0
2018-Feb-17 15:00N 39°35' W 075°36'0 0.0
2018-Feb-17 14:30N 39°35' W 075°36'0 0.0
2018-Feb-17 14:00N 39°35' W 075°36'0 0.0
2018-Feb-17 13:30N 39°35' W 075°36'0 0.0
2018-Feb-17 13:00N 39°35' W 075°36'0 0.0
2018-Feb-17 12:30N 39°35' W 075°36'0 0.0
2018-Feb-17 12:00N 39°35' W 075°36'0 0.0
2018-Feb-17 11:30N 39°35' W 075°36'0 0.0
2018-Feb-17 10:57N 39°35' W 075°36'0 0.0
2018-Feb-17 10:30N 39°35' W 075°36'0 0.0
2018-Feb-17 10:00N 39°35' W 075°36'0 0.0
2018-Feb-17 09:30N 39°35' W 075°36'0 0.0
2018-Feb-17 09:00N 39°35' W 075°36'0 0.0
2018-Feb-17 08:30N 39°35' W 075°36'0 0.0
2018-Feb-17 08:00N 39°35' W 075°36'0 0.0
2018-Feb-17 07:30N 39°35' W 075°36'0 0.1
2018-Feb-17 07:00N 39°35' W 075°35'0 0.1
2018-Feb-17 06:30N 39°35' W 075°35'1 2.6
2018-Feb-17 06:00N 39°35' W 075°34'3 6.9
2018-Feb-17 05:30N 39°39' W 075°33'4 7.6
2018-Feb-17 04:59N 39°42' W 075°31'4 7.4
2018-Feb-17 04:30N 39°45' W 075°29'4 7.2
2018-Feb-17 04:00N 39°48' W 075°26'4 0.4
2018-Feb-16 19:00N 39°50' W 075°22'4 8.8
2018-Feb-16 18:30N 39°48' W 075°26'1 1.5
2018-Feb-16 17:58N 39°47' W 075°27'0 0.1
2018-Feb-16 17:30N 39°47' W 075°27'1 1.9
2018-Feb-16 17:01N 39°48' W 075°26'1 1.1
2018-Feb-16 16:30N 39°48' W 075°26'0 0.9
2018-Feb-16 15:58N 39°48' W 075°25'0 0.0
2018-Feb-16 15:30N 39°48' W 075°25'0 0.0
2018-Feb-16 15:00N 39°48' W 075°25'2 3.9
2018-Feb-16 14:30N 39°49' W 075°23'1 1.0
2018-Feb-16 14:00N 39°50' W 075°23'0 0.0
2018-Feb-16 13:27N 39°50' W 075°23'0 0.0
2018-Feb-16 13:00N 39°50' W 075°23'0 0.0
2018-Feb-16 12:27N 39°50' W 075°23'0 0.0
2018-Feb-16 12:00N 39°50' W 075°23'3 6.2
2018-Feb-16 11:30N 39°51' W 075°19'4 8.5
2018-Feb-16 11:00N 39°52' W 075°14'2 4.2
2018-Feb-16 10:28N 39°53' W 075°12'0 0.0
2018-Feb-16 09:58N 39°53' W 075°12'0 0.0
2018-Feb-16 09:28N 39°53' W 075°12'0 0.0
2018-Feb-16 08:58N 39°53' W 075°12'0 0.0
2018-Feb-16 08:30N 39°53' W 075°12'3 6.6
2018-Feb-16 08:00N 39°51' W 075°15'4 8.0
2018-Feb-16 07:31N 39°51' W 075°20'4 7.5
2018-Feb-16 07:01N 39°49' W 075°24'0 0.1
2018-Feb-16 06:30N 39°49' W 075°24'2 3.7
2018-Feb-16 06:01N 39°50' W 075°22'1 2.8
2018-Feb-16 05:31N 39°51' W 075°21'2 4.3
2018-Feb-16 05:00N 39°51' W 075°18'2 4.3
2018-Feb-16 04:30N 39°51' W 075°15'1 2.2
2018-Feb-16 04:00N 39°51' W 075°14'0 0.0
2018-Feb-16 03:31N 39°51' W 075°14'1 1.9
2018-Feb-16 03:01N 39°52' W 075°13'2 3.5
2018-Feb-16 02:29N 39°54' W 075°12'0 0.0
2018-Feb-16 01:59N 39°54' W 075°12'0 0.0
2018-Feb-16 01:29N 39°54' W 075°12'1 0.2
2018-Feb-15 23:06N 39°53' W 075°12'1 9.1
2018-Feb-15 23:01N 39°53' W 075°11'4 7.6
2018-Feb-15 22:31N 39°56' W 075°08'3 6.5
2018-Feb-15 22:00N 39°59' W 075°05'2 4.6
2018-Feb-15 21:30N 39°58' W 075°08'3 6.5
2018-Feb-15 21:00N 39°54' W 075°08'3 5.8
2018-Feb-15 20:30N 39°53' W 075°11'1 1.8
2018-Feb-15 20:01N 39°54' W 075°12'0 0.7
2018-Feb-15 19:30N 39°54' W 075°12'0 0.0
2018-Feb-15 19:00N 39°54' W 075°12'0 0.1
2018-Feb-15 18:30N 39°54' W 075°12'0 0.3
2018-Feb-15 18:00N 39°54' W 075°12'0 0.3
2018-Feb-15 17:30N 39°54' W 075°12'0 0.0
2018-Feb-15 17:00N 39°54' W 075°12'0 0.0
2018-Feb-15 16:31N 39°54' W 075°12'0 0.0
2018-Feb-15 16:00N 39°54' W 075°12'0 0.2
2018-Feb-15 15:30N 39°54' W 075°12'0 0.1
2018-Feb-15 15:00N 39°54' W 075°12'0 0.2
2018-Feb-15 14:28N 39°54' W 075°12'0 0.0
2018-Feb-15 13:58N 39°54' W 075°12'0 0.0
2018-Feb-15 13:28N 39°54' W 075°12'0 0.1
2018-Feb-15 13:00N 39°54' W 075°12'0 0.1
2018-Feb-15 12:29N 39°54' W 075°12'0 0.2
2018-Feb-15 12:00N 39°54' W 075°12'0 0.0
2018-Feb-15 11:29N 39°54' W 075°12'0 0.0
2018-Feb-15 10:59N 39°54' W 075°12'0 0.0
2018-Feb-15 10:29N 39°54' W 075°12'0 0.0
2018-Feb-15 09:59N 39°54' W 075°12'0 0.0
2018-Feb-15 09:29N 39°54' W 075°12'0 0.0
2018-Feb-15 08:59N 39°54' W 075°12'0 0.0
2018-Feb-15 08:30N 39°54' W 075°12'0 0.0
2018-Feb-15 07:59N 39°54' W 075°12'0 0.0
2018-Feb-15 07:30N 39°54' W 075°12'0 0.0
2018-Feb-15 06:59N 39°54' W 075°12'0 0.0
2018-Feb-15 06:29N 39°54' W 075°12'0 0.0
2018-Feb-15 05:59N 39°54' W 075°12'0 0.0
2018-Feb-15 05:29N 39°54' W 075°12'0 0.0
2018-Feb-15 04:59N 39°54' W 075°12'0 0.0
2018-Feb-15 04:30N 39°54' W 075°12'0 0.0
2018-Feb-15 03:59N 39°54' W 075°12'0 0.3
2018-Feb-15 03:30N 39°54' W 075°12'1 2.1
2018-Feb-15 03:00N 39°53' W 075°12'5 9.6
2018-Feb-15 02:30N 39°51' W 075°18'5 9.1
2018-Feb-15 02:00N 39°49' W 075°23'1 2.8
2018-Feb-15 01:30N 39°48' W 075°25'0 0.0
2018-Feb-15 01:01N 39°48' W 075°25'2 3.7
2018-Feb-15 00:31N 39°49' W 075°23'4 8.7
2018-Feb-15 00:01N 39°51' W 075°18'5 9.0
2018-Feb-14 23:30N 39°53' W 075°12'1 2.1
2018-Feb-14 23:01N 39°54' W 075°12'0 0.0
2018-Feb-14 22:29N 39°54' W 075°12'0 0.0
2018-Feb-14 21:56N 39°54' W 075°12'0 0.0
2018-Feb-14 21:29N 39°54' W 075°12'0 0.0
2018-Feb-14 20:59N 39°54' W 075°12'0 0.0
2018-Feb-14 20:29N 39°54' W 075°12'0 0.0
2018-Feb-14 19:59N 39°54' W 075°12'0 0.0
2018-Feb-14 19:26N 39°54' W 075°12'0 0.1
2018-Feb-14 19:00N 39°54' W 075°12'2 3.9
2018-Feb-14 18:30N 39°52' W 075°13'4 8.5
2018-Feb-14 18:00N 39°51' W 075°19'4 8.4
2018-Feb-14 17:30N 39°49' W 075°23'0 0.0
2018-Feb-14 16:59N 39°49' W 075°23'0 0.0
2018-Feb-14 16:29N 39°49' W 075°23'0 0.0
2018-Feb-14 15:59N 39°49' W 075°23'0 0.0
2018-Feb-14 15:29N 39°49' W 075°23'0 0.0
2018-Feb-14 14:59N 39°49' W 075°23'0 0.0
2018-Feb-14 14:29N 39°49' W 075°23'0 0.0
2018-Feb-14 13:59N 39°49' W 075°23'0 0.0
2018-Feb-14 13:29N 39°49' W 075°23'0 0.0
2018-Feb-14 12:59N 39°49' W 075°23'0 0.4
2018-Feb-14 12:29N 39°49' W 075°24'0 0.2
2018-Feb-14 11:59N 39°49' W 075°24'0 0.0
2018-Feb-14 11:26N 39°49' W 075°24'0 0.0
2018-Feb-14 10:59N 39°49' W 075°24'0 0.0
2018-Feb-14 10:29N 39°49' W 075°24'0 0.0
2018-Feb-14 09:59N 39°49' W 075°24'0 0.0
2018-Feb-14 09:29N 39°49' W 075°24'0 0.0
2018-Feb-14 08:59N 39°49' W 075°24'0 0.0
2018-Feb-14 08:29N 39°49' W 075°24'0 0.0
2018-Feb-14 07:59N 39°49' W 075°24'0 0.0
2018-Feb-14 07:26N 39°49' W 075°24'0 0.0
2018-Feb-14 06:59N 39°49' W 075°24'0 0.1
2018-Feb-14 06:30N 39°49' W 075°24'4 7.2
2018-Feb-14 06:00N 39°51' W 075°20'4 8.1
2018-Feb-14 05:31N 39°51' W 075°15'4 7.5
2018-Feb-14 05:01N 39°53' W 075°10'3 5.1
2018-Feb-14 04:31N 39°54' W 075°08'0 0.1
2018-Feb-14 04:00N 39°54' W 075°08'0 0.0
2018-Feb-14 03:30N 39°54' W 075°08'0 0.0
2018-Feb-14 03:00N 39°54' W 075°08'0 0.0
2018-Feb-14 02:30N 39°54' W 075°08'0 0.0
2018-Feb-14 02:00N 39°54' W 075°08'0 0.2
2018-Feb-14 01:31N 39°54' W 075°08'2 3.6
2018-Feb-14 01:00N 39°53' W 075°09'3 5.5
2018-Feb-14 00:28N 39°54' W 075°12'0 0.0
2018-Feb-13 23:58N 39°54' W 075°12'0 0.0
2018-Feb-13 23:28N 39°54' W 075°12'0 0.0
2018-Feb-13 22:58N 39°54' W 075°12'0 0.0
2018-Feb-13 22:28N 39°54' W 075°12'0 0.0
2018-Feb-13 21:58N 39°54' W 075°12'0 0.0
2018-Feb-13 21:28N 39°54' W 075°12'0 0.0
2018-Feb-13 20:58N 39°54' W 075°12'0 0.1
2018-Feb-13 20:30N 39°54' W 075°12'0 0.7
2018-Feb-13 20:00N 39°54' W 075°12'3 6.1
2018-Feb-13 19:30N 39°51' W 075°15'3 7.0
2018-Feb-13 19:00N 39°51' W 075°19'3 6.7
2018-Feb-13 18:31N 39°49' W 075°23'1 2.3
2018-Feb-13 18:00N 39°49' W 075°24'3 5.5
2018-Feb-13 17:31N 39°47' W 075°27'4 8.7
2018-Feb-13 17:00N 39°44' W 075°30'1 1.5
2018-Feb-13 16:30N 39°43' W 075°31'2 3.9
2018-Feb-13 16:00N 39°45' W 075°30'3 5.4
2018-Feb-13 15:31N 39°47' W 075°28'3 5.2
2018-Feb-13 15:01N 39°48' W 075°25'2 4.3
2018-Feb-13 14:31N 39°50' W 075°23'2 4.5
2018-Feb-13 14:01N 39°51' W 075°20'3 5.0
2018-Feb-13 13:30N 39°51' W 075°17'3 5.4
2018-Feb-13 13:00N 39°52' W 075°14'3 6.0
2018-Feb-13 12:31N 39°53' W 075°10'1 2.9
2018-Feb-13 12:01N 39°54' W 075°08'0 0.0
2018-Feb-13 11:30N 39°54' W 075°08'1 2.4
2018-Feb-13 11:01N 39°53' W 075°09'2 4.6
2018-Feb-13 10:30N 39°54' W 075°12'0 0.0
2018-Feb-13 10:00N 39°54' W 075°12'0 0.0
2018-Feb-13 09:30N 39°54' W 075°12'0 0.0
2018-Feb-13 09:00N 39°54' W 075°12'0 0.0
2018-Feb-13 08:30N 39°54' W 075°12'0 0.0
2018-Feb-13 08:00N 39°54' W 075°12'0 0.3
2018-Feb-13 07:28N 39°54' W 075°12'0 0.2
2018-Feb-13 06:58N 39°54' W 075°13'0 0.2
2018-Feb-13 06:31N 39°54' W 075°12'0 0.2
2018-Feb-13 05:59N 39°54' W 075°12'0 0.0
2018-Feb-13 05:29N 39°54' W 075°12'0 0.0
2018-Feb-13 04:59N 39°54' W 075°12'0 0.0
2018-Feb-13 04:29N 39°54' W 075°12'0 0.0
2018-Feb-13 03:59N 39°54' W 075°12'0 0.0
2018-Feb-13 03:26N 39°54' W 075°12'0 0.0
2018-Feb-13 02:59N 39°54' W 075°12'0 0.0
2018-Feb-13 02:29N 39°54' W 075°12'0 0.0
2018-Feb-13 01:59N 39°54' W 075°12'0 0.0
2018-Feb-13 01:29N 39°54' W 075°12'0 0.0
2018-Feb-13 00:59N 39°54' W 075°12'0 0.7
2018-Feb-13 00:31N 39°54' W 075°12'4 7.6
2018-Feb-13 00:01N 39°51' W 075°15'4 8.3
2018-Feb-12 23:31N 39°51' W 075°21'4 7.7
2018-Feb-12 23:00N 39°48' W 075°25'3 6.2
2018-Feb-12 22:31N 39°46' W 075°28'4 7.6
2018-Feb-12 22:00N 39°43' W 075°30'4 7.1
2018-Feb-12 21:31N 39°40' W 075°32'3 7.0
2018-Feb-12 21:00N 39°37' W 075°35'3 6.6
2018-Feb-12 20:31N 39°34' W 075°33'4 8.9
2018-Feb-12 20:00N 39°33' W 075°39'4 9.0
2018-Feb-12 19:31N 39°32' W 075°45'4 7.5
2018-Feb-12 19:01N 39°32' W 075°49'4 7.6
2018-Feb-12 18:30N 39°31' W 075°54'4 7.9
2018-Feb-12 18:01N 39°28' W 075°58'4 8.0
2018-Feb-12 17:30N 39°25' W 076°02'4 7.4
2018-Feb-12 17:00N 39°23' W 076°06'4 7.4
2018-Feb-12 16:30N 39°21' W 076°10'4 7.0
2018-Feb-12 15:59N 39°19' W 076°13'11 7.1
2018-Feb-12 14:26N 39°09' W 076°20'4 8.7
2018-Feb-12 14:00N 39°10' W 076°24'5 9.2
2018-Feb-12 13:30N 39°12' W 076°30'4 7.9
2018-Feb-12 13:00N 39°14' W 076°34'1 1.1
2018-Feb-12 12:29N 39°15' W 076°34'0 0.0
2018-Feb-12 11:53N 39°15' W 076°34'0 0.0
2018-Feb-12 11:29N 39°15' W 076°34'0 0.0
2018-Feb-12 10:59N 39°15' W 076°34'0 0.0
2018-Feb-12 10:26N 39°15' W 076°34'0 0.0
2018-Feb-12 09:56N 39°15' W 076°34'0 0.0
2018-Feb-12 09:26N 39°15' W 076°34'  
Track history (hours):
 
Tides and Currents Weather Stations Pressure Air Temp Water Temp Dewpoint Dewpoint Depression Visibility Wind Speed Wind Dir Waves Ship Positions

Oyster Creek

Owner: Vane Line Bunkering, Inc, Philadelphia, PA. More information available from US FCC via Universal Licensing System and Coast Guard Vessel Documentation Center.

Last reported at 2018-Feb-22 08:58 UTC. Time now 2018-Feb-22 09:09 UTC.
Position N 39°59' W 075°06'.

Length 30 m; draft 4 m.

Type: Tug. MMSI: 367477980.

Date/timePositionNaut miles runAvg speedWind from/ knotsBaromVisibWave heightAir tempDewpointWater temp
2018-Feb-22 08:58N 39°59' W 075°06'0 0.0
2018-Feb-22 08:28N 39°59' W 075°06'0 0.0
2018-Feb-22 07:58N 39°59' W 075°06'0 0.0
2018-Feb-22 07:28N 39°59' W 075°06'0 0.0
2018-Feb-22 06:58N 39°59' W 075°06'0 0.0
2018-Feb-22 06:28N 39°59' W 075°06'0 0.0
2018-Feb-22 05:58N 39°59' W 075°06'0 0.0
2018-Feb-22 05:28N 39°59' W 075°06'0 0.0
2018-Feb-22 04:58N 39°59' W 075°06'0 0.0
2018-Feb-22 04:28N 39°59' W 075°06'0 0.0
2018-Feb-22 03:58N 39°59' W 075°06'0 0.0
2018-Feb-22 03:28N 39°59' W 075°06'0 0.0
2018-Feb-22 02:58N 39°59' W 075°06'0 0.0
2018-Feb-22 02:28N 39°59' W 075°06'0 0.0
2018-Feb-22 01:58N 39°59' W 075°06'0 0.0
2018-Feb-22 01:28N 39°59' W 075°06'0 0.0
2018-Feb-22 00:58N 39°59' W 075°06'0 0.0
2018-Feb-22 00:28N 39°59' W 075°06'0 0.0
2018-Feb-21 23:58N 39°59' W 075°06'0 0.0
2018-Feb-21 23:28N 39°59' W 075°06'0 0.0
2018-Feb-21 22:55N 39°59' W 075°06'0 0.0
2018-Feb-21 22:28N 39°59' W 075°06'0 0.0
2018-Feb-21 21:58N 39°59' W 075°06'0 0.0
2018-Feb-21 21:28N 39°59' W 075°06'1 1.1
2018-Feb-21 21:00N 39°58' W 075°06'5 9.9
2018-Feb-21 20:30N 39°54' W 075°08'3 6.4
2018-Feb-21 20:00N 39°54' W 075°12'0 0.0
2018-Feb-21 19:30N 39°54' W 075°12'0 0.1
2018-Feb-21 19:00N 39°54' W 075°12'0 0.0
2018-Feb-21 18:28N 39°54' W 075°12'0 0.6
2018-Feb-21 18:00N 39°54' W 075°12'0 0.8
2018-Feb-21 17:30N 39°54' W 075°12'0 0.1
2018-Feb-21 17:00N 39°54' W 075°12'0 0.0
2018-Feb-21 16:30N 39°54' W 075°12'0 0.4
2018-Feb-21 16:01N 39°54' W 075°12'2 3.0
2018-Feb-21 15:30N 39°52' W 075°13'0 0.7
2018-Feb-21 15:00N 39°52' W 075°12'1 2.7
2018-Feb-21 14:30N 39°54' W 075°12'0 0.5
2018-Feb-21 13:59N 39°54' W 075°12'0 0.0
2018-Feb-21 13:29N 39°54' W 075°12'0 0.0
2018-Feb-21 12:59N 39°54' W 075°12'0 0.0
2018-Feb-21 12:29N 39°54' W 075°12'0 0.0
2018-Feb-21 11:56N 39°54' W 075°12'0 0.0
2018-Feb-21 11:29N 39°54' W 075°12'0 0.0
2018-Feb-21 10:59N 39°54' W 075°12'0 0.0
2018-Feb-21 10:29N 39°54' W 075°12'0 0.0
2018-Feb-21 09:59N 39°54' W 075°12'0 0.0
2018-Feb-21 09:29N 39°54' W 075°12'0 0.2
2018-Feb-21 09:01N 39°54' W 075°12'0 0.8
2018-Feb-21 08:30N 39°54' W 075°12'4 8.6
2018-Feb-21 08:00N 39°51' W 075°16'5 9.3
2018-Feb-21 07:30N 39°50' W 075°22'4 8.9
2018-Feb-21 07:01N 39°47' W 075°27'5 9.5
2018-Feb-21 06:31N 39°43' W 075°30'1 1.1
2018-Feb-21 06:01N 39°43' W 075°31'0 0.0
2018-Feb-21 05:30N 39°43' W 075°31'0 0.0
2018-Feb-21 05:00N 39°43' W 075°31'0 0.0
2018-Feb-21 04:29N 39°43' W 075°31'0 0.5
2018-Feb-21 03:58N 39°43' W 075°31'0 0.0
2018-Feb-21 03:29N 39°43' W 075°31'0 0.0
2018-Feb-21 02:59N 39°43' W 075°31'0 0.0
2018-Feb-21 02:29N 39°43' W 075°31'0 0.0
2018-Feb-21 01:56N 39°43' W 075°31'0 0.0
2018-Feb-21 01:29N 39°43' W 075°31'0 0.0
2018-Feb-21 00:59N 39°43' W 075°31'0 0.0
2018-Feb-21 00:29N 39°43' W 075°31'0 0.2
2018-Feb-21 00:00N 39°43' W 075°31'0 0.2
2018-Feb-20 23:30N 39°43' W 075°31'0 0.0
2018-Feb-20 23:00N 39°43' W 075°31'0 0.0
2018-Feb-20 22:27N 39°43' W 075°31'0 0.0
2018-Feb-20 22:00N 39°43' W 075°31'0 0.1
2018-Feb-20 21:31N 39°43' W 075°31'1 2.1
2018-Feb-20 21:00N 39°44' W 075°30'4 7.2
2018-Feb-20 20:30N 39°47' W 075°28'3 6.7
2018-Feb-20 20:00N 39°49' W 075°24'3 6.4
2018-Feb-20 19:30N 39°51' W 075°21'3 6.3
2018-Feb-20 19:00N 39°51' W 075°17'3 5.8
2018-Feb-20 18:30N 39°52' W 075°13'3 5.2
2018-Feb-20 18:01N 39°51' W 075°16'510.1
2018-Feb-20 17:31N 39°50' W 075°23'5 9.8
2018-Feb-20 17:00N 39°47' W 075°28'4 8.4
2018-Feb-20 16:28N 39°43' W 075°31'0 0.1
2018-Feb-20 15:59N 39°43' W 075°31'0 0.9
2018-Feb-20 15:30N 39°43' W 075°30'0 0.2
2018-Feb-20 15:00N 39°43' W 075°30'3 6.8
2018-Feb-20 14:30N 39°46' W 075°29'4 7.4
2018-Feb-20 14:00N 39°48' W 075°25'3 5.5
2018-Feb-20 13:30N 39°50' W 075°22'4 8.0
2018-Feb-20 13:00N 39°51' W 075°17'4 8.0
2018-Feb-20 12:30N 39°53' W 075°12'1 2.0
2018-Feb-20 12:00N 39°54' W 075°12'0 0.1
2018-Feb-20 11:30N 39°54' W 075°12'0 0.0
2018-Feb-20 11:00N 39°54' W 075°12'1 1.1
2018-Feb-20 10:30N 39°53' W 075°12'2 3.9
2018-Feb-20 10:00N 39°52' W 075°13'2 3.6
2018-Feb-20 09:29N 39°54' W 075°12'0 0.0
2018-Feb-20 08:59N 39°54' W 075°12'0 0.0
2018-Feb-20 08:29N 39°54' W 075°12'0 0.1
2018-Feb-20 08:00N 39°54' W 075°12'0 0.0
2018-Feb-20 07:30N 39°54' W 075°12'0 0.0
2018-Feb-20 07:00N 39°54' W 075°12'0 0.0
2018-Feb-20 06:30N 39°54' W 075°12'0 0.0
2018-Feb-20 06:00N 39°54' W 075°12'0 0.0
2018-Feb-20 05:30N 39°54' W 075°12'0 0.0
2018-Feb-20 05:00N 39°54' W 075°12'0 0.0
2018-Feb-20 04:30N 39°54' W 075°12'0 0.0
2018-Feb-20 04:00N 39°54' W 075°12'0 0.0
2018-Feb-20 03:30N 39°54' W 075°12'0 0.0
2018-Feb-20 03:00N 39°54' W 075°12'0 0.0
2018-Feb-20 02:30N 39°54' W 075°12'0 0.0
2018-Feb-20 02:00N 39°54' W 075°12'0 0.0
2018-Feb-20 01:30N 39°54' W 075°12'0 0.0
2018-Feb-20 01:00N 39°54' W 075°12'0 0.0
2018-Feb-20 00:30N 39°54' W 075°12'0 0.0
2018-Feb-20 00:00N 39°54' W 075°12'0 0.0
2018-Feb-19 23:30N 39°54' W 075°12'0 0.0
2018-Feb-19 23:00N 39°54' W 075°12'1 1.2
2018-Feb-19 22:30N 39°53' W 075°12'0 0.0
2018-Feb-19 22:00N 39°53' W 075°12'0 0.0
2018-Feb-19 21:24N 39°53' W 075°12'0 0.0
2018-Feb-19 21:00N 39°53' W 075°12'0 0.0
2018-Feb-19 20:30N 39°53' W 075°12'0 0.0
2018-Feb-19 20:00N 39°53' W 075°12'0 0.0
2018-Feb-19 19:30N 39°53' W 075°12'0 0.0
2018-Feb-19 19:00N 39°53' W 075°12'0 0.0
2018-Feb-19 18:30N 39°53' W 075°12'0 0.0
2018-Feb-19 18:00N 39°53' W 075°12'0 0.0
2018-Feb-19 17:31N 39°53' W 075°12'0 0.0
2018-Feb-19 17:00N 39°53' W 075°12'0 0.0
2018-Feb-19 16:30N 39°53' W 075°12'1 1.2
2018-Feb-19 16:01N 39°54' W 075°12'1 2.1
2018-Feb-19 15:30N 39°55' W 075°13'0 0.0
2018-Feb-19 15:00N 39°55' W 075°13'0 0.0
2018-Feb-19 14:30N 39°55' W 075°13'1 1.9
2018-Feb-19 14:00N 39°54' W 075°12'0 0.4
2018-Feb-19 13:31N 39°54' W 075°12'0 0.0
2018-Feb-19 13:01N 39°54' W 075°12'0 0.2
2018-Feb-19 12:28N 39°54' W 075°12'0 0.0
2018-Feb-19 12:00N 39°54' W 075°12'0 0.0
2018-Feb-19 11:30N 39°54' W 075°12'0 0.0
2018-Feb-19 11:00N 39°54' W 075°12'0 0.0
2018-Feb-19 10:30N 39°54' W 075°12'1 2.1
2018-Feb-19 10:01N 39°55' W 075°13'0 0.0
2018-Feb-19 09:30N 39°55' W 075°13'0 0.0
2018-Feb-19 09:01N 39°55' W 075°13'1 2.2
2018-Feb-19 08:30N 39°54' W 075°12'0 0.1
2018-Feb-19 08:00N 39°54' W 075°12'0 0.0
2018-Feb-19 07:30N 39°54' W 075°12'0 0.0
2018-Feb-19 07:00N 39°54' W 075°12'0 0.0
2018-Feb-19 06:30N 39°54' W 075°12'0 0.0
2018-Feb-19 06:00N 39°54' W 075°12'0 0.0
2018-Feb-19 05:30N 39°54' W 075°12'0 0.0
2018-Feb-19 05:00N 39°54' W 075°12'0 0.0
2018-Feb-19 04:30N 39°54' W 075°12'0 0.0
2018-Feb-19 04:00N 39°54' W 075°12'0 0.1
2018-Feb-19 03:30N 39°54' W 075°12'1 1.4
2018-Feb-19 03:00N 39°53' W 075°12'2 4.1
2018-Feb-19 02:30N 39°53' W 075°09'0 0.2
2018-Feb-19 02:00N 39°53' W 075°09'0 0.7
2018-Feb-19 01:30N 39°53' W 075°10'2 3.5
2018-Feb-19 01:00N 39°53' W 075°12'1 1.2
2018-Feb-19 00:31N 39°54' W 075°12'0 0.2
2018-Feb-19 00:00N 39°54' W 075°12'0 0.0
2018-Feb-18 23:30N 39°54' W 075°12'2 3.8
2018-Feb-18 23:01N 39°53' W 075°10'3 5.3
2018-Feb-18 22:30N 39°55' W 075°08'0 0.0
2018-Feb-18 22:00N 39°55' W 075°08'0 0.0
2018-Feb-18 21:30N 39°55' W 075°08'0 0.0
2018-Feb-18 21:00N 39°55' W 075°08'1 2.3
2018-Feb-18 20:31N 39°54' W 075°08'1 2.7
2018-Feb-18 20:01N 39°53' W 075°09'3 5.4
2018-Feb-18 19:29N 39°54' W 075°12'0 0.0
2018-Feb-18 18:56N 39°54' W 075°12'0 0.0
2018-Feb-18 18:29N 39°54' W 075°12'0 0.0
2018-Feb-18 17:59N 39°54' W 075°12'0 0.1
2018-Feb-18 17:30N 39°54' W 075°12'1 1.4
2018-Feb-18 17:00N 39°53' W 075°12'4 8.8
2018-Feb-18 16:30N 39°51' W 075°16'5 9.1
2018-Feb-18 16:00N 39°50' W 075°22'3 5.3
2018-Feb-18 15:30N 39°48' W 075°25'3 5.1
2018-Feb-18 15:00N 39°50' W 075°22'510.2
2018-Feb-18 14:30N 39°51' W 075°16'510.7
2018-Feb-18 14:00N 39°53' W 075°09'2 3.4
2018-Feb-18 13:30N 39°54' W 075°08'2 5.0
2018-Feb-18 13:00N 39°53' W 075°11'2 4.9
2018-Feb-18 12:30N 39°55' W 075°13'0 0.0
2018-Feb-18 12:00N 39°55' W 075°13'1 2.2
2018-Feb-18 11:30N 39°54' W 075°12'0 0.1
2018-Feb-18 10:59N 39°54' W 075°12'1 1.1
2018-Feb-18 10:25N 39°54' W 075°12'0 0.1
2018-Feb-18 09:58N 39°54' W 075°11'0 0.0
2018-Feb-18 09:28N 39°54' W 075°11'0 0.0
2018-Feb-18 08:58N 39°54' W 075°11'0 0.0
2018-Feb-18 08:28N 39°54' W 075°11'0 0.0
2018-Feb-18 07:58N 39°54' W 075°11'0 0.0
2018-Feb-18 07:28N 39°54' W 075°11'0 0.0
2018-Feb-18 06:58N 39°54' W 075°11'0 0.8
2018-Feb-18 06:30N 39°53' W 075°12'3 5.7
2018-Feb-18 06:00N 39°54' W 075°08'3 6.9
2018-Feb-18 05:31N 39°57' W 075°08'3 6.5
2018-Feb-18 05:00N 39°59' W 075°04'0 0.1
2018-Feb-18 04:31N 39°59' W 075°04'4 7.5
2018-Feb-18 04:01N 39°57' W 075°08'4 7.7
2018-Feb-18 03:30N 39°53' W 075°09'3 5.4
2018-Feb-18 03:00N 39°54' W 075°12'0 0.2
2018-Feb-18 02:30N 39°54' W 075°12'1 2.2
2018-Feb-18 02:01N 39°55' W 075°13'0 0.0
2018-Feb-18 01:30N 39°55' W 075°13'1 2.2
2018-Feb-18 01:00N 39°54' W 075°12'0 0.2
2018-Feb-18 00:31N 39°54' W 075°12'0 0.0
2018-Feb-18 00:01N 39°54' W 075°12'2 3.3
2018-Feb-17 23:30N 39°52' W 075°13'3 6.8
2018-Feb-17 23:00N 39°51' W 075°17'3 6.7
2018-Feb-17 22:30N 39°50' W 075°21'3 5.8
2018-Feb-17 22:00N 39°48' W 075°25'1 1.0
2018-Feb-17 21:30N 39°48' W 075°25'3 5.9
2018-Feb-17 21:00N 39°46' W 075°28'3 6.6
2018-Feb-17 20:31N 39°43' W 075°30'3 6.9
2018-Feb-17 20:01N 39°40' W 075°32'4 7.1
2018-Feb-17 19:30N 39°37' W 075°35'4 7.2
2018-Feb-17 19:00N 39°34' W 075°33'2 4.4
2018-Feb-17 18:30N 39°35' W 075°36'0 0.0
2018-Feb-17 18:00N 39°35' W 075°36'0 0.0
2018-Feb-17 17:30N 39°35' W 075°36'0 0.0
2018-Feb-17 17:00N 39°35' W 075°36'0 0.0
2018-Feb-17 16:30N 39°35' W 075°36'0 0.0
2018-Feb-17 16:00N 39°35' W 075°36'0 0.0
2018-Feb-17 15:30N 39°35' W 075°36'0 0.0
2018-Feb-17 15:00N 39°35' W 075°36'0 0.0
2018-Feb-17 14:30N 39°35' W 075°36'0 0.0
2018-Feb-17 14:00N 39°35' W 075°36'0 0.0
2018-Feb-17 13:30N 39°35' W 075°36'0 0.0
2018-Feb-17 13:00N 39°35' W 075°36'0 0.0
2018-Feb-17 12:30N 39°35' W 075°36'0 0.0
2018-Feb-17 12:00N 39°35' W 075°36'0 0.0
2018-Feb-17 11:30N 39°35' W 075°36'0 0.0
2018-Feb-17 10:57N 39°35' W 075°36'0 0.0
2018-Feb-17 10:30N 39°35' W 075°36'0 0.0
2018-Feb-17 10:00N 39°35' W 075°36'0 0.0
2018-Feb-17 09:30N 39°35' W 075°36'0 0.0
2018-Feb-17 09:00N 39°35' W 075°36'0 0.0
2018-Feb-17 08:30N 39°35' W 075°36'0 0.0
2018-Feb-17 08:00N 39°35' W 075°36'0 0.0
2018-Feb-17 07:30N 39°35' W 075°36'0 0.1
2018-Feb-17 07:00N 39°35' W 075°35'0 0.1
2018-Feb-17 06:30N 39°35' W 075°35'1 2.6
2018-Feb-17 06:00N 39°35' W 075°34'3 6.9
2018-Feb-17 05:30N 39°39' W 075°33'4 7.6
2018-Feb-17 04:59N 39°42' W 075°31'4 7.4
2018-Feb-17 04:30N 39°45' W 075°29'4 7.2
2018-Feb-17 04:00N 39°48' W 075°26'4 0.4
2018-Feb-16 19:00N 39°50' W 075°22'4 8.8
2018-Feb-16 18:30N 39°48' W 075°26'1 1.5
2018-Feb-16 17:58N 39°47' W 075°27'0 0.1
2018-Feb-16 17:30N 39°47' W 075°27'1 1.9
2018-Feb-16 17:01N 39°48' W 075°26'1 1.1
2018-Feb-16 16:30N 39°48' W 075°26'0 0.9
2018-Feb-16 15:58N 39°48' W 075°25'0 0.0
2018-Feb-16 15:30N 39°48' W 075°25'0 0.0
2018-Feb-16 15:00N 39°48' W 075°25'2 3.9
2018-Feb-16 14:30N 39°49' W 075°23'1 1.0
2018-Feb-16 14:00N 39°50' W 075°23'0 0.0
2018-Feb-16 13:27N 39°50' W 075°23'0 0.0
2018-Feb-16 13:00N 39°50' W 075°23'0 0.0
2018-Feb-16 12:27N 39°50' W 075°23'0 0.0
2018-Feb-16 12:00N 39°50' W 075°23'3 6.2
2018-Feb-16 11:30N 39°51' W 075°19'4 8.5
2018-Feb-16 11:00N 39°52' W 075°14'2 4.2
2018-Feb-16 10:28N 39°53' W 075°12'0 0.0
2018-Feb-16 09:58N 39°53' W 075°12'0 0.0
2018-Feb-16 09:28N 39°53' W 075°12'0 0.0
2018-Feb-16 08:58N 39°53' W 075°12'0 0.0
2018-Feb-16 08:30N 39°53' W 075°12'3 6.6
2018-Feb-16 08:00N 39°51' W 075°15'4 8.0
2018-Feb-16 07:31N 39°51' W 075°20'4 7.5
2018-Feb-16 07:01N 39°49' W 075°24'0 0.1
2018-Feb-16 06:30N 39°49' W 075°24'2 3.7
2018-Feb-16 06:01N 39°50' W 075°22'1 2.8
2018-Feb-16 05:31N 39°51' W 075°21'2 4.3
2018-Feb-16 05:00N 39°51' W 075°18'2 4.3
2018-Feb-16 04:30N 39°51' W 075°15'1 2.2
2018-Feb-16 04:00N 39°51' W 075°14'0 0.0
2018-Feb-16 03:31N 39°51' W 075°14'1 1.9
2018-Feb-16 03:01N 39°52' W 075°13'2 3.5
2018-Feb-16 02:29N 39°54' W 075°12'0 0.0
2018-Feb-16 01:59N 39°54' W 075°12'0 0.0
2018-Feb-16 01:29N 39°54' W 075°12'1 0.2
2018-Feb-15 23:06N 39°53' W 075°12'1 9.1
2018-Feb-15 23:01N 39°53' W 075°11'4 7.6
2018-Feb-15 22:31N 39°56' W 075°08'3 6.5
2018-Feb-15 22:00N 39°59' W 075°05'2 4.6
2018-Feb-15 21:30N 39°58' W 075°08'3 6.5
2018-Feb-15 21:00N 39°54' W 075°08'3 5.8
2018-Feb-15 20:30N 39°53' W 075°11'1 1.8
2018-Feb-15 20:01N 39°54' W 075°12'0 0.7
2018-Feb-15 19:30N 39°54' W 075°12'0 0.0
2018-Feb-15 19:00N 39°54' W 075°12'0 0.1
2018-Feb-15 18:30N 39°54' W 075°12'0 0.3
2018-Feb-15 18:00N 39°54' W 075°12'0 0.3
2018-Feb-15 17:30N 39°54' W 075°12'0 0.0
2018-Feb-15 17:00N 39°54' W 075°12'0 0.0
2018-Feb-15 16:31N 39°54' W 075°12'0 0.0
2018-Feb-15 16:00N 39°54' W 075°12'0 0.2
2018-Feb-15 15:30N 39°54' W 075°12'0 0.1
2018-Feb-15 15:00N 39°54' W 075°12'0 0.2
2018-Feb-15 14:28N 39°54' W 075°12'0 0.0
2018-Feb-15 13:58N 39°54' W 075°12'0 0.0
2018-Feb-15 13:28N 39°54' W 075°12'0 0.1
2018-Feb-15 13:00N 39°54' W 075°12'0 0.1
2018-Feb-15 12:29N 39°54' W 075°12'0 0.2
2018-Feb-15 12:00N 39°54' W 075°12'0 0.0
2018-Feb-15 11:29N 39°54' W 075°12'0 0.0
2018-Feb-15 10:59N 39°54' W 075°12'0 0.0
2018-Feb-15 10:29N 39°54' W 075°12'0 0.0
2018-Feb-15 09:59N 39°54' W 075°12'0 0.0
2018-Feb-15 09:29N 39°54' W 075°12'0 0.0
2018-Feb-15 08:59N 39°54' W 075°12'0 0.0
2018-Feb-15 08:30N 39°54' W 075°12'0 0.0
2018-Feb-15 07:59N 39°54' W 075°12'0 0.0
2018-Feb-15 07:30N 39°54' W 075°12'0 0.0
2018-Feb-15 06:59N 39°54' W 075°12'0 0.0
2018-Feb-15 06:29N 39°54' W 075°12'0 0.0
2018-Feb-15 05:59N 39°54' W 075°12'0 0.0
2018-Feb-15 05:29N 39°54' W 075°12'0 0.0
2018-Feb-15 04:59N 39°54' W 075°12'0 0.0
2018-Feb-15 04:30N 39°54' W 075°12'0 0.0
2018-Feb-15 03:59N 39°54' W 075°12'0 0.3
2018-Feb-15 03:30N 39°54' W 075°12'1 2.1
2018-Feb-15 03:00N 39°53' W 075°12'5 9.6
2018-Feb-15 02:30N 39°51' W 075°18'5 9.1
2018-Feb-15 02:00N 39°49' W 075°23'1 2.8
2018-Feb-15 01:30N 39°48' W 075°25'0 0.0
2018-Feb-15 01:01N 39°48' W 075°25'2 3.7
2018-Feb-15 00:31N 39°49' W 075°23'4 8.7
2018-Feb-15 00:01N 39°51' W 075°18'5 9.0
2018-Feb-14 23:30N 39°53' W 075°12'1 2.1
2018-Feb-14 23:01N 39°54' W 075°12'0 0.0
2018-Feb-14 22:29N 39°54' W 075°12'0 0.0
2018-Feb-14 21:56N 39°54' W 075°12'0 0.0
2018-Feb-14 21:29N 39°54' W 075°12'0 0.0
2018-Feb-14 20:59N 39°54' W 075°12'0 0.0
2018-Feb-14 20:29N 39°54' W 075°12'0 0.0
2018-Feb-14 19:59N 39°54' W 075°12'0 0.0
2018-Feb-14 19:26N 39°54' W 075°12'0 0.1
2018-Feb-14 19:00N 39°54' W 075°12'2 3.9
2018-Feb-14 18:30N 39°52' W 075°13'4 8.5
2018-Feb-14 18:00N 39°51' W 075°19'4 8.4
2018-Feb-14 17:30N 39°49' W 075°23'0 0.0
2018-Feb-14 16:59N 39°49' W 075°23'0 0.0
2018-Feb-14 16:29N 39°49' W 075°23'0 0.0
2018-Feb-14 15:59N 39°49' W 075°23'0 0.0
2018-Feb-14 15:29N 39°49' W 075°23'0 0.0
2018-Feb-14 14:59N 39°49' W 075°23'0 0.0
2018-Feb-14 14:29N 39°49' W 075°23'0 0.0
2018-Feb-14 13:59N 39°49' W 075°23'0 0.0
2018-Feb-14 13:29N 39°49' W 075°23'0 0.0
2018-Feb-14 12:59N 39°49' W 075°23'0 0.4
2018-Feb-14 12:29N 39°49' W 075°24'0 0.2
2018-Feb-14 11:59N 39°49' W 075°24'0 0.0
2018-Feb-14 11:26N 39°49' W 075°24'0 0.0
2018-Feb-14 10:59N 39°49' W 075°24'0 0.0
2018-Feb-14 10:29N 39°49' W 075°24'0 0.0
2018-Feb-14 09:59N 39°49' W 075°24'0 0.0
2018-Feb-14 09:29N 39°49' W 075°24'0 0.0
2018-Feb-14 08:59N 39°49' W 075°24'0 0.0
2018-Feb-14 08:29N 39°49' W 075°24'0 0.0
2018-Feb-14 07:59N 39°49' W 075°24'0 0.0
2018-Feb-14 07:26N 39°49' W 075°24'0 0.0
2018-Feb-14 06:59N 39°49' W 075°24'0 0.1
2018-Feb-14 06:30N 39°49' W 075°24'4 7.2
2018-Feb-14 06:00N 39°51' W 075°20'4 8.1
2018-Feb-14 05:31N 39°51' W 075°15'4 7.5
2018-Feb-14 05:01N 39°53' W 075°10'3 5.1
2018-Feb-14 04:31N 39°54' W 075°08'0 0.1
2018-Feb-14 04:00N 39°54' W 075°08'0 0.0
2018-Feb-14 03:30N 39°54' W 075°08'0 0.0
2018-Feb-14 03:00N 39°54' W 075°08'0 0.0
2018-Feb-14 02:30N 39°54' W 075°08'0 0.0
2018-Feb-14 02:00N 39°54' W 075°08'0 0.2
2018-Feb-14 01:31N 39°54' W 075°08'2 3.6
2018-Feb-14 01:00N 39°53' W 075°09'3 5.5
2018-Feb-14 00:28N 39°54' W 075°12'0 0.0
2018-Feb-13 23:58N 39°54' W 075°12'0 0.0
2018-Feb-13 23:28N 39°54' W 075°12'0 0.0
2018-Feb-13 22:58N 39°54' W 075°12'0 0.0
2018-Feb-13 22:28N 39°54' W 075°12'0 0.0
2018-Feb-13 21:58N 39°54' W 075°12'0 0.0
2018-Feb-13 21:28N 39°54' W 075°12'0 0.0
2018-Feb-13 20:58N 39°54' W 075°12'0 0.1
2018-Feb-13 20:30N 39°54' W 075°12'0 0.7
2018-Feb-13 20:00N 39°54' W 075°12'3 6.1
2018-Feb-13 19:30N 39°51' W 075°15'3 7.0
2018-Feb-13 19:00N 39°51' W 075°19'3 6.7
2018-Feb-13 18:31N 39°49' W 075°23'1 2.3
2018-Feb-13 18:00N 39°49' W 075°24'3 5.5
2018-Feb-13 17:31N 39°47' W 075°27'4 8.7
2018-Feb-13 17:00N 39°44' W 075°30'1 1.5
2018-Feb-13 16:30N 39°43' W 075°31'2 3.9
2018-Feb-13 16:00N 39°45' W 075°30'3 5.4
2018-Feb-13 15:31N 39°47' W 075°28'3 5.2
2018-Feb-13 15:01N 39°48' W 075°25'2 4.3
2018-Feb-13 14:31N 39°50' W 075°23'2 4.5
2018-Feb-13 14:01N 39°51' W 075°20'3 5.0
2018-Feb-13 13:30N 39°51' W 075°17'3 5.4
2018-Feb-13 13:00N 39°52' W 075°14'3 6.0
2018-Feb-13 12:31N 39°53' W 075°10'1 2.9
2018-Feb-13 12:01N 39°54' W 075°08'0 0.0
2018-Feb-13 11:30N 39°54' W 075°08'1 2.4
2018-Feb-13 11:01N 39°53' W 075°09'2 4.6
2018-Feb-13 10:30N 39°54' W 075°12'0 0.0
2018-Feb-13 10:00N 39°54' W 075°12'0 0.0
2018-Feb-13 09:30N 39°54' W 075°12'0 0.0
2018-Feb-13 09:00N 39°54' W 075°12'0 0.0
2018-Feb-13 08:30N 39°54' W 075°12'0 0.0
2018-Feb-13 08:00N 39°54' W 075°12'0 0.3
2018-Feb-13 07:28N 39°54' W 075°12'0 0.2
2018-Feb-13 06:58N 39°54' W 075°13'0 0.2
2018-Feb-13 06:31N 39°54' W 075°12'0 0.2
2018-Feb-13 05:59N 39°54' W 075°12'0 0.0
2018-Feb-13 05:29N 39°54' W 075°12'0 0.0
2018-Feb-13 04:59N 39°54' W 075°12'0 0.0
2018-Feb-13 04:29N 39°54' W 075°12'0 0.0
2018-Feb-13 03:59N 39°54' W 075°12'0 0.0
2018-Feb-13 03:26N 39°54' W 075°12'0 0.0
2018-Feb-13 02:59N 39°54' W 075°12'0 0.0
2018-Feb-13 02:29N 39°54' W 075°12'0 0.0
2018-Feb-13 01:59N 39°54' W 075°12'0 0.0
2018-Feb-13 01:29N 39°54' W 075°12'0 0.0
2018-Feb-13 00:59N 39°54' W 075°12'0 0.7
2018-Feb-13 00:31N 39°54' W 075°12'4 7.6
2018-Feb-13 00:01N 39°51' W 075°15'4 8.3
2018-Feb-12 23:31N 39°51' W 075°21'4 7.7
2018-Feb-12 23:00N 39°48' W 075°25'3 6.2
2018-Feb-12 22:31N 39°46' W 075°28'4 7.6
2018-Feb-12 22:00N 39°43' W 075°30'4 7.1
2018-Feb-12 21:31N 39°40' W 075°32'3 7.0
2018-Feb-12 21:00N 39°37' W 075°35'3 6.6
2018-Feb-12 20:31N 39°34' W 075°33'4 8.9
2018-Feb-12 20:00N 39°33' W 075°39'4 9.0
2018-Feb-12 19:31N 39°32' W 075°45'4 7.5
2018-Feb-12 19:01N 39°32' W 075°49'4 7.6
2018-Feb-12 18:30N 39°31' W 075°54'4 7.9
2018-Feb-12 18:01N 39°28' W 075°58'4 8.0
2018-Feb-12 17:30N 39°25' W 076°02'4 7.4
2018-Feb-12 17:00N 39°23' W 076°06'4 7.4
2018-Feb-12 16:30N 39°21' W 076°10'4 7.0
2018-Feb-12 15:59N 39°19' W 076°13'11 7.1
2018-Feb-12 14:26N 39°09' W 076°20'4 8.7
2018-Feb-12 14:00N 39°10' W 076°24'5 9.2
2018-Feb-12 13:30N 39°12' W 076°30'4 7.9
2018-Feb-12 13:00N 39°14' W 076°34'1 1.1
2018-Feb-12 12:29N 39°15' W 076°34'0 0.0
2018-Feb-12 11:53N 39°15' W 076°34'0 0.0
2018-Feb-12 11:29N 39°15' W 076°34'0 0.0
2018-Feb-12 10:59N 39°15' W 076°34'0 0.0
2018-Feb-12 10:26N 39°15' W 076°34'0 0.0
2018-Feb-12 09:56N 39°15' W 076°34'0 0.0
2018-Feb-12 09:26N 39°15' W 076°34'  

Dump ship's entire track history